Kalach-na-Donu, Russia
Current Conditions -  °F | °C
As of 11:00 AM on Sunday 21 Dec 2014 (Local Time) from URWW Reporting Station
Scattered Clouds Scattered Clouds  
Wind Chill: 39°   Ceiling: Unl
Heat Index: 45°   Visibility: 6mi
Dew Point: 43°   Wind: 11mph
Humidity: 93%   Direction: 280°W
Pressure: 29.88"   Gusts: NA
Location:  48.71°N, 43.5°E
Report Text: URWW 210800Z 28005MPS 9999 SCT020 SCT100 07/06 Q1012 NOSIG RMK29290054
Loading
Personal Weather Stations






























Interactive Weather Map New forecast layout! Learn more

10-Day Weather Forecast

Advertisements
Track Severe Weather on mobile